sensor_id;sensor_type;location;lat;lon;timestamp;P1;durP1;ratioP1;P2;durP2;ratioP2
11173;SDS011;5643;50.856;12.088;2023-09-30T00:01:18;1.80;;;1.40;;
11173;SDS011;5643;50.856;12.088;2023-09-30T00:03:56;1.73;;;1.50;;
11173;SDS011;5643;50.856;12.088;2023-09-30T00:06:23;1.93;;;1.83;;
11173;SDS011;5643;50.856;12.088;2023-09-30T00:08:50;1.90;;;1.70;;
11173;SDS011;5643;50.856;12.088;2023-09-30T00:11:18;2.20;;;2.00;;
11173;SDS011;5643;50.856;12.088;2023-09-30T00:13:45;2.03;;;1.83;;
11173;SDS011;5643;50.856;12.088;2023-09-30T00:16:16;2.73;;;2.10;;
11173;SDS011;5643;50.856;12.088;2023-09-30T00:18:47;1.67;;;1.57;;
11173;SDS011;5643;50.856;12.088;2023-09-30T00:21:18;2.30;;;2.10;;
11173;SDS011;5643;50.856;12.088;2023-09-30T00:23:46;2.10;;;2.00;;
11173;SDS011;5643;50.856;12.088;2023-09-30T00:26:17;2.03;;;1.93;;
11173;SDS011;5643;50.856;12.088;2023-09-30T00:28:44;2.07;;;1.80;;
11173;SDS011;5643;50.856;12.088;2023-09-30T00:31:12;2.00;;;1.70;;
11173;SDS011;5643;50.856;12.088;2023-09-30T00:33:43;1.90;;;1.73;;
11173;SDS011;5643;50.856;12.088;2023-09-30T00:36:11;1.90;;;1.70;;
11173;SDS011;5643;50.856;12.088;2023-09-30T00:38:40;1.53;;;1.43;;
11173;SDS011;5643;50.856;12.088;2023-09-30T00:41:10;1.90;;;1.80;;
11173;SDS011;5643;50.856;12.088;2023-09-30T00:43:38;1.73;;;1.63;;
11173;SDS011;5643;50.856;12.088;2023-09-30T00:48:49;1.60;;;1.50;;
11173;SDS011;5643;50.856;12.088;2023-09-30T00:51:17;1.73;;;1.63;;
11173;SDS011;5643;50.856;12.088;2023-09-30T00:53:47;1.60;;;1.50;;
11173;SDS011;5643;50.856;12.088;2023-09-30T00:56:16;1.83;;;1.73;;
11173;SDS011;5643;50.856;12.088;2023-09-30T00:58:44;1.50;;;1.40;;
11173;SDS011;5643;50.856;12.088;2023-09-30T01:01:12;1.30;;;1.20;;
11173;SDS011;5643;50.856;12.088;2023-09-30T01:03:46;1.40;;;1.30;;
11173;SDS011;5643;50.856;12.088;2023-09-30T01:06:17;1.00;;;1.00;;
11173;SDS011;5643;50.856;12.088;2023-09-30T01:08:46;1.27;;;1.17;;
11173;SDS011;5643;50.856;12.088;2023-09-30T01:11:16;1.20;;;1.20;;
11173;SDS011;5643;50.856;12.088;2023-09-30T01:13:44;1.10;;;1.10;;
11173;SDS011;5643;50.856;12.088;2023-09-30T01:16:13;1.17;;;1.17;;
11173;SDS011;5643;50.856;12.088;2023-09-30T01:18:40;1.20;;;1.10;;
11173;SDS011;5643;50.856;12.088;2023-09-30T01:21:09;1.20;;;1.20;;
11173;SDS011;5643;50.856;12.088;2023-09-30T01:23:39;2.00;;;1.33;;
11173;SDS011;5643;50.856;12.088;2023-09-30T01:26:07;1.60;;;1.50;;
11173;SDS011;5643;50.856;12.088;2023-09-30T01:28:35;2.30;;;2.10;;
11173;SDS011;5643;50.856;12.088;2023-09-30T01:31:04;2.70;;;2.50;;
11173;SDS011;5643;50.856;12.088;2023-09-30T01:33:35;3.00;;;2.80;;
11173;SDS011;5643;50.856;12.088;2023-09-30T01:36:04;3.90;;;3.50;;
11173;SDS011;5643;50.856;12.088;2023-09-30T01:38:35;3.00;;;2.80;;
11173;SDS011;5643;50.856;12.088;2023-09-30T01:41:08;2.90;;;2.70;;
11173;SDS011;5643;50.856;12.088;2023-09-30T01:43:35;2.80;;;2.60;;
11173;SDS011;5643;50.856;12.088;2023-09-30T01:46:04;4.23;;;2.40;;
11173;SDS011;5643;50.856;12.088;2023-09-30T01:48:32;2.93;;;2.50;;
11173;SDS011;5643;50.856;12.088;2023-09-30T01:51:06;2.60;;;2.40;;
11173;SDS011;5643;50.856;12.088;2023-09-30T01:53:33;2.80;;;2.47;;
11173;SDS011;5643;50.856;12.088;2023-09-30T01:56:00;2.37;;;2.00;;
11173;SDS011;5643;50.856;12.088;2023-09-30T01:58:29;3.20;;;2.30;;
11173;SDS011;5643;50.856;12.088;2023-09-30T02:01:01;2.60;;;2.27;;
11173;SDS011;5643;50.856;12.088;2023-09-30T02:03:29;2.40;;;2.20;;
11173;SDS011;5643;50.856;12.088;2023-09-30T02:06:01;2.20;;;2.00;;
11173;SDS011;5643;50.856;12.088;2023-09-30T02:08:32;3.00;;;2.40;;
11173;SDS011;5643;50.856;12.088;2023-09-30T02:11:02;2.03;;;1.80;;
11173;SDS011;5643;50.856;12.088;2023-09-30T02:13:40;1.60;;;1.50;;
11173;SDS011;5643;50.856;12.088;2023-09-30T02:16:11;2.93;;;1.80;;
11173;SDS011;5643;50.856;12.088;2023-09-30T02:18:39;2.10;;;1.87;;
11173;SDS011;5643;50.856;12.088;2023-09-30T02:21:07;2.10;;;1.60;;
11173;SDS011;5643;50.856;12.088;2023-09-30T02:23:35;2.13;;;1.90;;
11173;SDS011;5643;50.856;12.088;2023-09-30T02:26:02;2.13;;;1.93;;
11173;SDS011;5643;50.856;12.088;2023-09-30T02:28:33;1.60;;;1.50;;
11173;SDS011;5643;50.856;12.088;2023-09-30T02:31:06;1.63;;;1.50;;
11173;SDS011;5643;50.856;12.088;2023-09-30T02:33:34;1.50;;;1.40;;
11173;SDS011;5643;50.856;12.088;2023-09-30T02:36:06;2.00;;;1.80;;
11173;SDS011;5643;50.856;12.088;2023-09-30T02:38:34;1.77;;;1.63;;
11173;SDS011;5643;50.856;12.088;2023-09-30T02:41:02;2.17;;;1.60;;
11173;SDS011;5643;50.856;12.088;2023-09-30T02:43:34;2.20;;;1.63;;
11173;SDS011;5643;50.856;12.088;2023-09-30T02:46:02;2.40;;;1.63;;
11173;SDS011;5643;50.856;12.088;2023-09-30T02:48:31;2.80;;;1.50;;
11173;SDS011;5643;50.856;12.088;2023-09-30T02:51:00;1.77;;;1.67;;
11173;SDS011;5643;50.856;12.088;2023-09-30T02:53:30;2.13;;;1.67;;
11173;SDS011;5643;50.856;12.088;2023-09-30T02:55:57;2.77;;;1.63;;
11173;SDS011;5643;50.856;12.088;2023-09-30T02:58:26;2.80;;;1.80;;
11173;SDS011;5643;50.856;12.088;2023-09-30T03:00:56;2.20;;;1.63;;
11173;SDS011;5643;50.856;12.088;2023-09-30T03:03:25;2.10;;;1.40;;
11173;SDS011;5643;50.856;12.088;2023-09-30T03:05:59;1.87;;;1.50;;
11173;SDS011;5643;50.856;12.088;2023-09-30T03:08:27;2.17;;;1.60;;
11173;SDS011;5643;50.856;12.088;2023-09-30T03:10:54;2.50;;;2.00;;
11173;SDS011;5643;50.856;12.088;2023-09-30T03:13:22;1.70;;;1.23;;
11173;SDS011;5643;50.856;12.088;2023-09-30T03:15:50;1.40;;;1.30;;
11173;SDS011;5643;50.856;12.088;2023-09-30T03:18:18;1.70;;;1.47;;
11173;SDS011;5643;50.856;12.088;2023-09-30T03:20:52;2.03;;;1.50;;
11173;SDS011;5643;50.856;12.088;2023-09-30T03:23:25;1.40;;;1.27;;
11173;SDS011;5643;50.856;12.088;2023-09-30T03:25:56;1.20;;;1.10;;
11173;SDS011;5643;50.856;12.088;2023-09-30T03:28:28;1.43;;;1.20;;
11173;SDS011;5643;50.856;12.088;2023-09-30T03:30:57;1.87;;;1.40;;
11173;SDS011;5643;50.856;12.088;2023-09-30T03:33:30;1.80;;;1.50;;
11173;SDS011;5643;50.856;12.088;2023-09-30T03:35:58;1.43;;;1.30;;
11173;SDS011;5643;50.856;12.088;2023-09-30T03:38:28;1.53;;;1.20;;
11173;SDS011;5643;50.856;12.088;2023-09-30T03:40:55;2.07;;;1.17;;
11173;SDS011;5643;50.856;12.088;2023-09-30T03:43:26;1.60;;;1.50;;
11173;SDS011;5643;50.856;12.088;2023-09-30T03:45:56;2.23;;;1.70;;
11173;SDS011;5643;50.856;12.088;2023-09-30T03:48:25;1.87;;;1.70;;
11173;SDS011;5643;50.856;12.088;2023-09-30T03:50:52;1.90;;;1.70;;
11173;SDS011;5643;50.856;12.088;2023-09-30T03:53:20;3.00;;;1.80;;
11173;SDS011;5643;50.856;12.088;2023-09-30T03:55:54;1.70;;;1.50;;
11173;SDS011;5643;50.856;12.088;2023-09-30T03:58:21;2.10;;;1.60;;
11173;SDS011;5643;50.856;12.088;2023-09-30T04:00:49;2.27;;;1.60;;
11173;SDS011;5643;50.856;12.088;2023-09-30T04:03:18;1.50;;;1.40;;
11173;SDS011;5643;50.856;12.088;2023-09-30T04:05:46;1.70;;;1.50;;
11173;SDS011;5643;50.856;12.088;2023-09-30T04:08:16;1.67;;;1.20;;
11173;SDS011;5643;50.856;12.088;2023-09-30T04:10:45;1.20;;;1.10;;
11173;SDS011;5643;50.856;12.088;2023-09-30T04:13:14;2.00;;;1.30;;
11173;SDS011;5643;50.856;12.088;2023-09-30T04:15:45;1.37;;;1.10;;
11173;SDS011;5643;50.856;12.088;2023-09-30T04:18:15;1.47;;;1.10;;
11173;SDS011;5643;50.856;12.088;2023-09-30T04:20:42;1.40;;;1.13;;
11173;SDS011;5643;50.856;12.088;2023-09-30T04:23:12;1.20;;;1.10;;
11173;SDS011;5643;50.856;12.088;2023-09-30T04:25:41;1.00;;;1.00;;
11173;SDS011;5643;50.856;12.088;2023-09-30T04:28:10;0.83;;;0.83;;
11173;SDS011;5643;50.856;12.088;2023-09-30T04:30:39;1.07;;;0.97;;
11173;SDS011;5643;50.856;12.088;2023-09-30T04:33:06;1.60;;;0.90;;
11173;SDS011;5643;50.856;12.088;2023-09-30T04:35:36;1.43;;;0.90;;
11173;SDS011;5643;50.856;12.088;2023-09-30T04:38:04;0.90;;;0.90;;
11173;SDS011;5643;50.856;12.088;2023-09-30T04:40:32;1.33;;;1.10;;
11173;SDS011;5643;50.856;12.088;2023-09-30T04:43:03;1.20;;;1.00;;
11173;SDS011;5643;50.856;12.088;2023-09-30T04:45:31;1.27;;;1.17;;
11173;SDS011;5643;50.856;12.088;2023-09-30T04:48:00;1.20;;;1.10;;
11173;SDS011;5643;50.856;12.088;2023-09-30T04:50:31;1.13;;;1.00;;
11173;SDS011;5643;50.856;12.088;2023-09-30T04:52:58;1.10;;;1.10;;
11173;SDS011;5643;50.856;12.088;2023-09-30T04:55:25;1.30;;;1.20;;
11173;SDS011;5643;50.856;12.088;2023-09-30T04:57:53;1.30;;;1.20;;
11173;SDS011;5643;50.856;12.088;2023-09-30T05:00:20;1.10;;;1.00;;
11173;SDS011;5643;50.856;12.088;2023-09-30T05:02:51;1.20;;;1.10;;
11173;SDS011;5643;50.856;12.088;2023-09-30T05:05:21;1.13;;;1.03;;
11173;SDS011;5643;50.856;12.088;2023-09-30T05:07:49;1.50;;;1.20;;
11173;SDS011;5643;50.856;12.088;2023-09-30T05:10:17;1.13;;;1.00;;
11173;SDS011;5643;50.856;12.088;2023-09-30T05:12:45;1.47;;;1.07;;
11173;SDS011;5643;50.856;12.088;2023-09-30T05:15:14;1.40;;;1.10;;
11173;SDS011;5643;50.856;12.088;2023-09-30T05:17:45;1.10;;;1.00;;
11173;SDS011;5643;50.856;12.088;2023-09-30T05:20:14;1.00;;;0.90;;
11173;SDS011;5643;50.856;12.088;2023-09-30T05:22:50;0.93;;;0.93;;
11173;SDS011;5643;50.856;12.088;2023-09-30T05:25:18;1.30;;;1.10;;
11173;SDS011;5643;50.856;12.088;2023-09-30T05:27:53;1.00;;;0.90;;
11173;SDS011;5643;50.856;12.088;2023-09-30T05:30:22;1.10;;;1.03;;
11173;SDS011;5643;50.856;12.088;2023-09-30T05:32:52;1.00;;;1.00;;
11173;SDS011;5643;50.856;12.088;2023-09-30T05:35:23;1.30;;;0.90;;
11173;SDS011;5643;50.856;12.088;2023-09-30T05:37:54;1.00;;;0.90;;
11173;SDS011;5643;50.856;12.088;2023-09-30T05:40:21;0.80;;;0.73;;
11173;SDS011;5643;50.856;12.088;2023-09-30T05:42:52;1.17;;;1.03;;
11173;SDS011;5643;50.856;12.088;2023-09-30T05:45:19;0.90;;;0.90;;
11173;SDS011;5643;50.856;12.088;2023-09-30T05:47:47;1.03;;;0.93;;
11173;SDS011;5643;50.856;12.088;2023-09-30T05:50:15;1.20;;;1.10;;
11173;SDS011;5643;50.856;12.088;2023-09-30T05:52:46;0.97;;;0.90;;
11173;SDS011;5643;50.856;12.088;2023-09-30T05:55:18;0.73;;;0.73;;
11173;SDS011;5643;50.856;12.088;2023-09-30T05:57:50;1.27;;;0.90;;
11173;SDS011;5643;50.856;12.088;2023-09-30T06:00:18;0.90;;;0.90;;
11173;SDS011;5643;50.856;12.088;2023-09-30T06:02:49;1.30;;;0.90;;
11173;SDS011;5643;50.856;12.088;2023-09-30T06:05:17;0.97;;;0.90;;
11173;SDS011;5643;50.856;12.088;2023-09-30T06:07:48;1.03;;;0.97;;
11173;SDS011;5643;50.856;12.088;2023-09-30T06:10:15;1.00;;;0.90;;
11173;SDS011;5643;50.856;12.088;2023-09-30T06:12:46;1.13;;;1.00;;
11173;SDS011;5643;50.856;12.088;2023-09-30T06:15:14;0.93;;;0.93;;
11173;SDS011;5643;50.856;12.088;2023-09-30T06:17:48;0.90;;;0.90;;
11173;SDS011;5643;50.856;12.088;2023-09-30T06:20:17;0.80;;;0.80;;
11173;SDS011;5643;50.856;12.088;2023-09-30T06:22:44;0.80;;;0.80;;
11173;SDS011;5643;50.856;12.088;2023-09-30T06:25:17;1.00;;;0.80;;
11173;SDS011;5643;50.856;12.088;2023-09-30T06:27:46;1.40;;;1.10;;
11173;SDS011;5643;50.856;12.088;2023-09-30T06:30:16;1.10;;;1.00;;
11173;SDS011;5643;50.856;12.088;2023-09-30T06:32:48;1.33;;;1.10;;
11173;SDS011;5643;50.856;12.088;2023-09-30T06:35:15;1.60;;;1.30;;
11173;SDS011;5643;50.856;12.088;2023-09-30T06:37:44;1.20;;;1.10;;
11173;SDS011;5643;50.856;12.088;2023-09-30T06:40:12;1.30;;;1.20;;
11173;SDS011;5643;50.856;12.088;2023-09-30T06:42:42;1.77;;;1.30;;
11173;SDS011;5643;50.856;12.088;2023-09-30T06:45:11;1.23;;;0.93;;
11173;SDS011;5643;50.856;12.088;2023-09-30T06:47:39;1.50;;;1.23;;
11173;SDS011;5643;50.856;12.088;2023-09-30T06:50:10;1.63;;;1.07;;
11173;SDS011;5643;50.856;12.088;2023-09-30T06:52:38;1.23;;;1.00;;
11173;SDS011;5643;50.856;12.088;2023-09-30T06:55:07;1.03;;;0.90;;
11173;SDS011;5643;50.856;12.088;2023-09-30T06:57:35;1.43;;;1.10;;
11173;SDS011;5643;50.856;12.088;2023-09-30T07:00:07;1.73;;;1.07;;
11173;SDS011;5643;50.856;12.088;2023-09-30T07:02:37;1.73;;;1.20;;
11173;SDS011;5643;50.856;12.088;2023-09-30T07:05:07;1.17;;;1.00;;
11173;SDS011;5643;50.856;12.088;2023-09-30T07:07:34;1.43;;;1.30;;
11173;SDS011;5643;50.856;12.088;2023-09-30T07:10:02;1.73;;;1.23;;
11173;SDS011;5643;50.856;12.088;2023-09-30T07:12:30;1.57;;;1.47;;
11173;SDS011;5643;50.856;12.088;2023-09-30T07:14:58;2.40;;;1.43;;
11173;SDS011;5643;50.856;12.088;2023-09-30T07:17:25;1.50;;;1.30;;
11173;SDS011;5643;50.856;12.088;2023-09-30T07:19:54;1.23;;;1.13;;
11173;SDS011;5643;50.856;12.088;2023-09-30T07:22:22;1.27;;;1.03;;
11173;SDS011;5643;50.856;12.088;2023-09-30T07:24:50;1.00;;;0.90;;
11173;SDS011;5643;50.856;12.088;2023-09-30T07:27:21;1.23;;;0.90;;
11173;SDS011;5643;50.856;12.088;2023-09-30T07:29:48;1.90;;;1.33;;
11173;SDS011;5643;50.856;12.088;2023-09-30T07:32:16;1.47;;;0.97;;
11173;SDS011;5643;50.856;12.088;2023-09-30T07:34:43;1.47;;;0.90;;
11173;SDS011;5643;50.856;12.088;2023-09-30T07:37:13;1.13;;;0.90;;
11173;SDS011;5643;50.856;12.088;2023-09-30T07:39:40;1.57;;;1.00;;
11173;SDS011;5643;50.856;12.088;2023-09-30T07:42:08;1.17;;;1.03;;
11173;SDS011;5643;50.856;12.088;2023-09-30T07:44:35;1.10;;;1.00;;
11173;SDS011;5643;50.856;12.088;2023-09-30T07:47:05;1.40;;;1.10;;
11173;SDS011;5643;50.856;12.088;2023-09-30T07:49:32;1.40;;;0.83;;
11173;SDS011;5643;50.856;12.088;2023-09-30T07:52:02;1.87;;;0.97;;
11173;SDS011;5643;50.856;12.088;2023-09-30T07:54:32;1.10;;;0.90;;
11173;SDS011;5643;50.856;12.088;2023-09-30T07:57:01;1.43;;;1.00;;
11173;SDS011;5643;50.856;12.088;2023-09-30T07:59:28;1.67;;;1.00;;
11173;SDS011;5643;50.856;12.088;2023-09-30T08:01:55;1.23;;;0.90;;
11173;SDS011;5643;50.856;12.088;2023-09-30T08:04:23;1.43;;;1.00;;
11173;SDS011;5643;50.856;12.088;2023-09-30T08:06:51;1.20;;;1.07;;
11173;SDS011;5643;50.856;12.088;2023-09-30T08:09:19;1.50;;;1.20;;
11173;SDS011;5643;50.856;12.088;2023-09-30T08:11:49;2.10;;;1.30;;
11173;SDS011;5643;50.856;12.088;2023-09-30T08:14:17;1.73;;;1.20;;
11173;SDS011;5643;50.856;12.088;2023-09-30T08:16:45;1.83;;;1.20;;
11173;SDS011;5643;50.856;12.088;2023-09-30T08:19:15;1.57;;;1.20;;
11173;SDS011;5643;50.856;12.088;2023-09-30T08:21:43;1.93;;;1.60;;
11173;SDS011;5643;50.856;12.088;2023-09-30T08:24:10;2.13;;;1.30;;
11173;SDS011;5643;50.856;12.088;2023-09-30T08:26:40;1.00;;;0.90;;
11173;SDS011;5643;50.856;12.088;2023-09-30T08:29:15;2.27;;;1.30;;
11173;SDS011;5643;50.856;12.088;2023-09-30T08:31:42;2.50;;;1.33;;
11173;SDS011;5643;50.856;12.088;2023-09-30T08:34:10;2.40;;;1.50;;
11173;SDS011;5643;50.856;12.088;2023-09-30T08:36:42;1.97;;;1.57;;
11173;SDS011;5643;50.856;12.088;2023-09-30T08:39:09;1.60;;;1.13;;
11173;SDS011;5643;50.856;12.088;2023-09-30T08:41:36;1.77;;;0.93;;
11173;SDS011;5643;50.856;12.088;2023-09-30T08:44:08;2.67;;;1.20;;
11173;SDS011;5643;50.856;12.088;2023-09-30T08:46:49;2.03;;;1.03;;
11173;SDS011;5643;50.856;12.088;2023-09-30T08:49:21;2.87;;;1.77;;
11173;SDS011;5643;50.856;12.088;2023-09-30T08:51:49;4.13;;;1.67;;
11173;SDS011;5643;50.856;12.088;2023-09-30T08:54:19;2.27;;;1.57;;
11173;SDS011;5643;50.856;12.088;2023-09-30T08:56:52;2.50;;;1.60;;
11173;SDS011;5643;50.856;12.088;2023-09-30T08:59:21;3.10;;;1.60;;
11173;SDS011;5643;50.856;12.088;2023-09-30T09:01:49;2.93;;;1.37;;
11173;SDS011;5643;50.856;12.088;2023-09-30T09:04:17;2.70;;;1.50;;
11173;SDS011;5643;50.856;12.088;2023-09-30T09:06:47;1.80;;;1.03;;
11173;SDS011;5643;50.856;12.088;2023-09-30T09:09:15;1.80;;;1.00;;
11173;SDS011;5643;50.856;12.088;2023-09-30T09:11:44;2.30;;;1.30;;
11173;SDS011;5643;50.856;12.088;2023-09-30T09:14:11;1.93;;;1.10;;
11173;SDS011;5643;50.856;12.088;2023-09-30T09:16:51;4.03;;;1.53;;
11173;SDS011;5643;50.856;12.088;2023-09-30T09:19:22;2.20;;;1.23;;
11173;SDS011;5643;50.856;12.088;2023-09-30T09:21:56;2.13;;;1.10;;
11173;SDS011;5643;50.856;12.088;2023-09-30T09:24:27;1.97;;;1.20;;
11173;SDS011;5643;50.856;12.088;2023-09-30T09:27:03;3.47;;;1.47;;
11173;SDS011;5643;50.856;12.088;2023-09-30T09:29:32;2.00;;;1.30;;
11173;SDS011;5643;50.856;12.088;2023-09-30T09:32:11;3.03;;;1.47;;
11173;SDS011;5643;50.856;12.088;2023-09-30T09:34:39;1.87;;;1.33;;
11173;SDS011;5643;50.856;12.088;2023-09-30T09:37:13;3.43;;;1.40;;
11173;SDS011;5643;50.856;12.088;2023-09-30T09:39:44;2.60;;;1.23;;
11173;SDS011;5643;50.856;12.088;2023-09-30T09:42:23;3.00;;;1.30;;
11173;SDS011;5643;50.856;12.088;2023-09-30T09:44:52;2.73;;;1.30;;
11173;SDS011;5643;50.856;12.088;2023-09-30T09:47:22;1.30;;;0.90;;
11173;SDS011;5643;50.856;12.088;2023-09-30T09:49:51;1.80;;;0.90;;
11173;SDS011;5643;50.856;12.088;2023-09-30T09:52:19;2.03;;;1.10;;
11173;SDS011;5643;50.856;12.088;2023-09-30T09:54:46;1.80;;;1.10;;
11173;SDS011;5643;50.856;12.088;2023-09-30T09:57:14;1.87;;;1.20;;
11173;SDS011;5643;50.856;12.088;2023-09-30T09:59:45;1.80;;;0.90;;
11173;SDS011;5643;50.856;12.088;2023-09-30T10:02:14;1.77;;;1.00;;
11173;SDS011;5643;50.856;12.088;2023-09-30T10:04:44;2.10;;;1.13;;
11173;SDS011;5643;50.856;12.088;2023-09-30T10:07:14;2.17;;;1.40;;
11173;SDS011;5643;50.856;12.088;2023-09-30T10:09:45;2.53;;;1.30;;
11173;SDS011;5643;50.856;12.088;2023-09-30T10:12:14;2.33;;;1.43;;
11173;SDS011;5643;50.856;12.088;2023-09-30T10:14:45;3.53;;;1.30;;
11173;SDS011;5643;50.856;12.088;2023-09-30T10:17:12;1.57;;;0.97;;
11173;SDS011;5643;50.856;12.088;2023-09-30T10:22:26;2.07;;;1.03;;
11173;SDS011;5643;50.856;12.088;2023-09-30T10:24:54;2.10;;;1.07;;
11173;SDS011;5643;50.856;12.088;2023-09-30T10:27:32;1.43;;;0.80;;
11173;SDS011;5643;50.856;12.088;2023-09-30T10:30:05;0.90;;;0.60;;
11173;SDS011;5643;50.856;12.088;2023-09-30T10:35:18;2.30;;;1.50;;
11173;SDS011;5643;50.856;12.088;2023-09-30T10:37:49;2.00;;;1.20;;
11173;SDS011;5643;50.856;12.088;2023-09-30T10:40:25;2.20;;;1.07;;
11173;SDS011;5643;50.856;12.088;2023-09-30T10:42:53;2.50;;;1.37;;
11173;SDS011;5643;50.856;12.088;2023-09-30T10:45:41;2.00;;;1.10;;
11173;SDS011;5643;50.856;12.088;2023-09-30T10:50:57;2.43;;;1.00;;
11173;SDS011;5643;50.856;12.088;2023-09-30T10:53:28;1.97;;;0.90;;
11173;SDS011;5643;50.856;12.088;2023-09-30T10:55:57;2.80;;;1.20;;
11173;SDS011;5643;50.856;12.088;2023-09-30T10:58:38;2.30;;;1.10;;
11173;SDS011;5643;50.856;12.088;2023-09-30T11:01:05;1.63;;;0.90;;
11173;SDS011;5643;50.856;12.088;2023-09-30T11:03:33;1.03;;;0.50;;
11173;SDS011;5643;50.856;12.088;2023-09-30T11:06:00;1.70;;;0.90;;
11173;SDS011;5643;50.856;12.088;2023-09-30T11:08:29;1.37;;;0.80;;
11173;SDS011;5643;50.856;12.088;2023-09-30T11:10:59;1.30;;;0.80;;
11173;SDS011;5643;50.856;12.088;2023-09-30T11:13:32;1.57;;;0.90;;
11173;SDS011;5643;50.856;12.088;2023-09-30T11:16:01;2.70;;;1.20;;
11173;SDS011;5643;50.856;12.088;2023-09-30T11:18:30;1.07;;;0.80;;
11173;SDS011;5643;50.856;12.088;2023-09-30T11:21:08;1.97;;;1.00;;
11173;SDS011;5643;50.856;12.088;2023-09-30T11:23:37;2.20;;;1.00;;
11173;SDS011;5643;50.856;12.088;2023-09-30T11:26:07;1.20;;;0.70;;
11173;SDS011;5643;50.856;12.088;2023-09-30T11:28:35;1.47;;;0.70;;
11173;SDS011;5643;50.856;12.088;2023-09-30T11:31:03;0.97;;;0.80;;
11173;SDS011;5643;50.856;12.088;2023-09-30T11:33:32;1.97;;;0.70;;
11173;SDS011;5643;50.856;12.088;2023-09-30T11:36:01;0.90;;;0.80;;
11173;SDS011;5643;50.856;12.088;2023-09-30T11:38:28;1.07;;;0.70;;
11173;SDS011;5643;50.856;12.088;2023-09-30T11:41:00;1.47;;;0.97;;
11173;SDS011;5643;50.856;12.088;2023-09-30T11:43:30;2.03;;;1.17;;
11173;SDS011;5643;50.856;12.088;2023-09-30T11:46:03;1.30;;;0.70;;
11173;SDS011;5643;50.856;12.088;2023-09-30T11:48:31;2.27;;;1.17;;
11173;SDS011;5643;50.856;12.088;2023-09-30T11:50:58;1.90;;;1.13;;
11173;SDS011;5643;50.856;12.088;2023-09-30T11:53:28;1.60;;;0.97;;
11173;SDS011;5643;50.856;12.088;2023-09-30T11:55:56;1.50;;;0.90;;
11173;SDS011;5643;50.856;12.088;2023-09-30T11:58:30;2.20;;;1.10;;
11173;SDS011;5643;50.856;12.088;2023-09-30T12:00:58;2.07;;;1.20;;
11173;SDS011;5643;50.856;12.088;2023-09-30T12:03:26;1.93;;;1.20;;
11173;SDS011;5643;50.856;12.088;2023-09-30T12:05:54;2.23;;;1.47;;
11173;SDS011;5643;50.856;12.088;2023-09-30T12:08:25;2.33;;;1.20;;
11173;SDS011;5643;50.856;12.088;2023-09-30T12:10:52;2.07;;;1.10;;
11173;SDS011;5643;50.856;12.088;2023-09-30T12:13:21;2.13;;;1.30;;
11173;SDS011;5643;50.856;12.088;2023-09-30T12:15:51;2.93;;;1.20;;
11173;SDS011;5643;50.856;12.088;2023-09-30T12:18:19;1.23;;;0.90;;
11173;SDS011;5643;50.856;12.088;2023-09-30T12:20:49;1.70;;;1.00;;
11173;SDS011;5643;50.856;12.088;2023-09-30T12:23:17;1.73;;;0.80;;
11173;SDS011;5643;50.856;12.088;2023-09-30T12:25:46;1.30;;;0.80;;
11173;SDS011;5643;50.856;12.088;2023-09-30T12:28:13;1.90;;;0.87;;
11173;SDS011;5643;50.856;12.088;2023-09-30T12:30:41;1.17;;;0.60;;
11173;SDS011;5643;50.856;12.088;2023-09-30T12:33:13;1.03;;;0.60;;
11173;SDS011;5643;50.856;12.088;2023-09-30T12:35:41;1.83;;;1.00;;
11173;SDS011;5643;50.856;12.088;2023-09-30T12:38:08;1.47;;;1.03;;
11173;SDS011;5643;50.856;12.088;2023-09-30T12:40:39;1.43;;;1.00;;
11173;SDS011;5643;50.856;12.088;2023-09-30T12:43:07;1.97;;;1.10;;
11173;SDS011;5643;50.856;12.088;2023-09-30T12:45:36;1.70;;;1.00;;
11173;SDS011;5643;50.856;12.088;2023-09-30T12:48:08;1.60;;;1.00;;
11173;SDS011;5643;50.856;12.088;2023-09-30T12:50:37;1.40;;;1.00;;
11173;SDS011;5643;50.856;12.088;2023-09-30T12:53:06;1.57;;;1.00;;
11173;SDS011;5643;50.856;12.088;2023-09-30T12:55:34;1.77;;;0.83;;
11173;SDS011;5643;50.856;12.088;2023-09-30T12:58:02;0.57;;;0.57;;
11173;SDS011;5643;50.856;12.088;2023-09-30T13:00:30;1.37;;;0.97;;
11173;SDS011;5643;50.856;12.088;2023-09-30T13:02:58;1.60;;;0.60;;
11173;SDS011;5643;50.856;12.088;2023-09-30T13:05:26;1.03;;;0.57;;
11173;SDS011;5643;50.856;12.088;2023-09-30T13:07:56;0.60;;;0.60;;
11173;SDS011;5643;50.856;12.088;2023-09-30T13:10:23;1.10;;;0.70;;
11173;SDS011;5643;50.856;12.088;2023-09-30T13:12:51;0.77;;;0.63;;
11173;SDS011;5643;50.856;12.088;2023-09-30T13:15:20;2.10;;;1.17;;
11173;SDS011;5643;50.856;12.088;2023-09-30T13:17:50;1.57;;;1.00;;
11173;SDS011;5643;50.856;12.088;2023-09-30T13:20:18;1.83;;;1.00;;
11173;SDS011;5643;50.856;12.088;2023-09-30T13:22:46;1.10;;;0.63;;
11173;SDS011;5643;50.856;12.088;2023-09-30T13:25:15;1.27;;;0.70;;
11173;SDS011;5643;50.856;12.088;2023-09-30T13:27:42;1.40;;;0.77;;
11173;SDS011;5643;50.856;12.088;2023-09-30T13:30:10;1.57;;;1.00;;
11173;SDS011;5643;50.856;12.088;2023-09-30T13:32:37;1.70;;;0.90;;
11173;SDS011;5643;50.856;12.088;2023-09-30T13:35:05;1.60;;;1.00;;
11173;SDS011;5643;50.856;12.088;2023-09-30T13:37:33;1.63;;;0.90;;
11173;SDS011;5643;50.856;12.088;2023-09-30T13:40:00;1.90;;;0.90;;
11173;SDS011;5643;50.856;12.088;2023-09-30T13:42:29;1.30;;;0.90;;
11173;SDS011;5643;50.856;12.088;2023-09-30T13:44:56;2.17;;;0.70;;
11173;SDS011;5643;50.856;12.088;2023-09-30T13:47:24;1.80;;;0.80;;
11173;SDS011;5643;50.856;12.088;2023-09-30T13:49:52;1.20;;;0.70;;
11173;SDS011;5643;50.856;12.088;2023-09-30T13:52:20;1.27;;;0.80;;
11173;SDS011;5643;50.856;12.088;2023-09-30T13:54:48;0.90;;;0.60;;
11173;SDS011;5643;50.856;12.088;2023-09-30T13:57:24;1.77;;;0.80;;
11173;SDS011;5643;50.856;12.088;2023-09-30T13:59:52;0.90;;;0.63;;
11173;SDS011;5643;50.856;12.088;2023-09-30T14:02:20;2.13;;;1.13;;
11173;SDS011;5643;50.856;12.088;2023-09-30T14:04:48;1.17;;;0.80;;
11173;SDS011;5643;50.856;12.088;2023-09-30T14:07:16;1.67;;;0.90;;
11173;SDS011;5643;50.856;12.088;2023-09-30T14:09:45;1.63;;;0.70;;
11173;SDS011;5643;50.856;12.088;2023-09-30T14:12:13;1.57;;;0.87;;
11173;SDS011;5643;50.856;12.088;2023-09-30T14:14:41;0.73;;;0.70;;
11173;SDS011;5643;50.856;12.088;2023-09-30T14:17:10;1.43;;;1.00;;
11173;SDS011;5643;50.856;12.088;2023-09-30T14:19:46;1.23;;;0.87;;
11173;SDS011;5643;50.856;12.088;2023-09-30T14:22:13;2.00;;;1.00;;
11173;SDS011;5643;50.856;12.088;2023-09-30T14:24:42;2.40;;;1.17;;
11173;SDS011;5643;50.856;12.088;2023-09-30T14:27:12;1.30;;;0.90;;
11173;SDS011;5643;50.856;12.088;2023-09-30T14:29:42;0.57;;;0.50;;
11173;SDS011;5643;50.856;12.088;2023-09-30T14:32:12;0.83;;;0.67;;
11173;SDS011;5643;50.856;12.088;2023-09-30T14:34:39;1.37;;;0.70;;
11173;SDS011;5643;50.856;12.088;2023-09-30T14:37:09;0.57;;;0.53;;
11173;SDS011;5643;50.856;12.088;2023-09-30T14:39:37;0.90;;;0.60;;
11173;SDS011;5643;50.856;12.088;2023-09-30T14:42:04;0.63;;;0.63;;
11173;SDS011;5643;50.856;12.088;2023-09-30T14:44:32;0.70;;;0.50;;
11173;SDS011;5643;50.856;12.088;2023-09-30T14:47:02;1.10;;;0.70;;
11173;SDS011;5643;50.856;12.088;2023-09-30T14:49:34;1.63;;;0.63;;
11173;SDS011;5643;50.856;12.088;2023-09-30T14:52:02;2.30;;;0.70;;
11173;SDS011;5643;50.856;12.088;2023-09-30T14:54:30;1.47;;;0.50;;
11173;SDS011;5643;50.856;12.088;2023-09-30T14:57:02;0.87;;;0.60;;
11173;SDS011;5643;50.856;12.088;2023-09-30T14:59:32;0.73;;;0.50;;
11173;SDS011;5643;50.856;12.088;2023-09-30T15:02:02;1.30;;;0.90;;
11173;SDS011;5643;50.856;12.088;2023-09-30T15:04:29;1.33;;;0.77;;
11173;SDS011;5643;50.856;12.088;2023-09-30T15:07:01;0.70;;;0.63;;
11173;SDS011;5643;50.856;12.088;2023-09-30T15:09:29;1.80;;;1.00;;
11173;SDS011;5643;50.856;12.088;2023-09-30T15:11:56;1.47;;;0.70;;